sensor_id;sensor_type;location;lat;lon;timestamp;temperature;humidity
65072;DHT22;51663;52.310;17.016;2024-01-11T00:00:12;21.80;20.20
65072;DHT22;51663;52.310;17.016;2024-01-11T00:03:34;21.80;20.10
65072;DHT22;51663;52.310;17.016;2024-01-11T00:06:44;21.70;20.30
65072;DHT22;51663;52.310;17.016;2024-01-11T00:09:46;21.60;20.40
65072;DHT22;51663;52.310;17.016;2024-01-11T00:12:49;21.70;20.40
65072;DHT22;51663;52.310;17.016;2024-01-11T00:15:52;21.80;20.30
65072;DHT22;51663;52.310;17.016;2024-01-11T00:18:55;21.50;20.30
65072;DHT22;51663;52.310;17.016;2024-01-11T00:21:57;21.50;20.30
65072;DHT22;51663;52.310;17.016;2024-01-11T00:25:00;21.60;20.50
65072;DHT22;51663;52.310;17.016;2024-01-11T00:28:03;21.60;20.30
65072;DHT22;51663;52.310;17.016;2024-01-11T00:31:05;21.60;20.40
65072;DHT22;51663;52.310;17.016;2024-01-11T00:34:07;21.50;20.50
65072;DHT22;51663;52.310;17.016;2024-01-11T00:37:10;21.40;20.60
65072;DHT22;51663;52.310;17.016;2024-01-11T00:40:13;21.50;20.60
65072;DHT22;51663;52.310;17.016;2024-01-11T00:43:15;21.50;20.70
65072;DHT22;51663;52.310;17.016;2024-01-11T00:46:17;21.60;20.60
65072;DHT22;51663;52.310;17.016;2024-01-11T00:49:20;21.60;20.50
65072;DHT22;51663;52.310;17.016;2024-01-11T00:52:22;21.60;20.40
65072;DHT22;51663;52.310;17.016;2024-01-11T00:55:25;21.60;20.70
65072;DHT22;51663;52.310;17.016;2024-01-11T00:58:27;21.50;20.50
65072;DHT22;51663;52.310;17.016;2024-01-11T01:01:30;21.50;20.60
65072;DHT22;51663;52.310;17.016;2024-01-11T01:04:33;21.60;20.50
65072;DHT22;51663;52.310;17.016;2024-01-11T01:07:36;21.50;20.60
65072;DHT22;51663;52.310;17.016;2024-01-11T01:10:38;21.60;20.70
65072;DHT22;51663;52.310;17.016;2024-01-11T01:13:41;21.70;20.70
65072;DHT22;51663;52.310;17.016;2024-01-11T01:16:43;21.60;20.80
65072;DHT22;51663;52.310;17.016;2024-01-11T01:19:45;21.70;20.80
65072;DHT22;51663;52.310;17.016;2024-01-11T01:22:49;21.60;20.70
65072;DHT22;51663;52.310;17.016;2024-01-11T01:25:51;21.60;20.70
65072;DHT22;51663;52.310;17.016;2024-01-11T01:28:53;21.80;20.70
65072;DHT22;51663;52.310;17.016;2024-01-11T01:36:32;21.60;20.60
65072;DHT22;51663;52.310;17.016;2024-01-11T01:39:37;21.70;20.60
65072;DHT22;51663;52.310;17.016;2024-01-11T01:42:43;21.70;20.60
65072;DHT22;51663;52.310;17.016;2024-01-11T01:45:47;21.80;20.50
65072;DHT22;51663;52.310;17.016;2024-01-11T01:48:51;21.80;20.50
65072;DHT22;51663;52.310;17.016;2024-01-11T01:51:55;21.80;20.40
65072;DHT22;51663;52.310;17.016;2024-01-11T01:54:58;21.80;20.40
65072;DHT22;51663;52.310;17.016;2024-01-11T01:58:00;21.90;20.40
65072;DHT22;51663;52.310;17.016;2024-01-11T02:01:04;21.80;20.40
65072;DHT22;51663;52.310;17.016;2024-01-11T02:04:11;21.70;20.50
65072;DHT22;51663;52.310;17.016;2024-01-11T02:07:13;21.60;20.70
65072;DHT22;51663;52.310;17.016;2024-01-11T02:10:16;21.50;20.60
65072;DHT22;51663;52.310;17.016;2024-01-11T02:13:19;21.30;20.80
65072;DHT22;51663;52.310;17.016;2024-01-11T02:16:22;21.40;20.80
65072;DHT22;51663;52.310;17.016;2024-01-11T02:19:24;21.40;20.80
65072;DHT22;51663;52.310;17.016;2024-01-11T02:22:41;21.50;20.60
65072;DHT22;51663;52.310;17.016;2024-01-11T02:25:45;21.50;20.70
65072;DHT22;51663;52.310;17.016;2024-01-11T02:28:47;21.30;20.70
65072;DHT22;51663;52.310;17.016;2024-01-11T02:31:50;21.30;20.80
65072;DHT22;51663;52.310;17.016;2024-01-11T02:34:54;21.60;20.70
65072;DHT22;51663;52.310;17.016;2024-01-11T02:37:57;21.70;20.60
65072;DHT22;51663;52.310;17.016;2024-01-11T02:41:00;21.70;20.80
65072;DHT22;51663;52.310;17.016;2024-01-11T02:44:02;21.70;20.80
65072;DHT22;51663;52.310;17.016;2024-01-11T02:47:05;21.40;21.10
65072;DHT22;51663;52.310;17.016;2024-01-11T02:50:08;21.60;20.90
65072;DHT22;51663;52.310;17.016;2024-01-11T02:53:11;21.60;21.10
65072;DHT22;51663;52.310;17.016;2024-01-11T02:56:13;21.60;21.20
65072;DHT22;51663;52.310;17.016;2024-01-11T02:59:16;21.60;21.20
65072;DHT22;51663;52.310;17.016;2024-01-11T03:02:18;21.50;21.30
65072;DHT22;51663;52.310;17.016;2024-01-11T03:05:21;21.50;21.30
65072;DHT22;51663;52.310;17.016;2024-01-11T03:08:23;21.30;21.40
65072;DHT22;51663;52.310;17.016;2024-01-11T03:11:25;21.40;21.50
65072;DHT22;51663;52.310;17.016;2024-01-11T03:14:28;21.60;21.50
65072;DHT22;51663;52.310;17.016;2024-01-11T03:17:31;21.40;21.60
65072;DHT22;51663;52.310;17.016;2024-01-11T03:20:34;21.50;21.70
65072;DHT22;51663;52.310;17.016;2024-01-11T03:23:37;21.50;21.70
65072;DHT22;51663;52.310;17.016;2024-01-11T03:26:40;21.60;21.70
65072;DHT22;51663;52.310;17.016;2024-01-11T03:29:42;21.80;21.70
65072;DHT22;51663;52.310;17.016;2024-01-11T03:32:44;21.80;21.70
65072;DHT22;51663;52.310;17.016;2024-01-11T03:35:47;21.80;21.80
65072;DHT22;51663;52.310;17.016;2024-01-11T03:38:50;21.70;21.80
65072;DHT22;51663;52.310;17.016;2024-01-11T03:41:54;21.70;21.80
65072;DHT22;51663;52.310;17.016;2024-01-11T03:44:57;21.90;21.80
65072;DHT22;51663;52.310;17.016;2024-01-11T03:48:01;21.70;21.90
65072;DHT22;51663;52.310;17.016;2024-01-11T03:51:03;21.90;22.00
65072;DHT22;51663;52.310;17.016;2024-01-11T03:54:06;21.70;22.00
65072;DHT22;51663;52.310;17.016;2024-01-11T03:57:08;21.90;22.10
65072;DHT22;51663;52.310;17.016;2024-01-11T04:00:11;21.80;22.10
65072;DHT22;51663;52.310;17.016;2024-01-11T04:03:13;21.70;22.20
65072;DHT22;51663;52.310;17.016;2024-01-11T04:06:21;21.80;22.20
65072;DHT22;51663;52.310;17.016;2024-01-11T04:09:23;22.00;22.20
65072;DHT22;51663;52.310;17.016;2024-01-11T04:12:26;21.90;22.20
65072;DHT22;51663;52.310;17.016;2024-01-11T04:15:28;22.00;22.10
65072;DHT22;51663;52.310;17.016;2024-01-11T04:18:32;22.10;22.30
65072;DHT22;51663;52.310;17.016;2024-01-11T04:21:34;21.80;22.40
65072;DHT22;51663;52.310;17.016;2024-01-11T04:24:37;21.90;22.60
65072;DHT22;51663;52.310;17.016;2024-01-11T04:27:39;21.80;22.50
65072;DHT22;51663;52.310;17.016;2024-01-11T04:30:42;22.00;22.60
65072;DHT22;51663;52.310;17.016;2024-01-11T04:33:45;21.90;22.60
65072;DHT22;51663;52.310;17.016;2024-01-11T04:36:49;22.10;22.60
65072;DHT22;51663;52.310;17.016;2024-01-11T04:39:51;22.00;22.70
65072;DHT22;51663;52.310;17.016;2024-01-11T04:42:53;21.80;22.70
65072;DHT22;51663;52.310;17.016;2024-01-11T04:45:55;22.00;22.80
65072;DHT22;51663;52.310;17.016;2024-01-11T04:48:58;22.20;22.70
65072;DHT22;51663;52.310;17.016;2024-01-11T04:52:00;22.20;22.60
65072;DHT22;51663;52.310;17.016;2024-01-11T04:55:03;22.10;23.30
65072;DHT22;51663;52.310;17.016;2024-01-11T04:58:05;22.40;22.80
65072;DHT22;51663;52.310;17.016;2024-01-11T05:01:12;22.40;22.80
65072;DHT22;51663;52.310;17.016;2024-01-11T05:04:14;22.30;22.90
65072;DHT22;51663;52.310;17.016;2024-01-11T05:07:17;22.50;22.90
65072;DHT22;51663;52.310;17.016;2024-01-11T05:10:20;22.20;23.00
65072;DHT22;51663;52.310;17.016;2024-01-11T05:13:22;22.40;23.10
65072;DHT22;51663;52.310;17.016;2024-01-11T05:16:26;22.50;22.90
65072;DHT22;51663;52.310;17.016;2024-01-11T05:19:29;22.50;23.10
65072;DHT22;51663;52.310;17.016;2024-01-11T05:22:31;22.60;23.00
65072;DHT22;51663;52.310;17.016;2024-01-11T05:25:34;22.40;23.10
65072;DHT22;51663;52.310;17.016;2024-01-11T05:28:37;22.60;23.10
65072;DHT22;51663;52.310;17.016;2024-01-11T05:31:40;22.60;23.10
65072;DHT22;51663;52.310;17.016;2024-01-11T05:34:43;22.50;23.20
65072;DHT22;51663;52.310;17.016;2024-01-11T05:37:46;22.50;23.20
65072;DHT22;51663;52.310;17.016;2024-01-11T05:40:48;22.70;23.20
65072;DHT22;51663;52.310;17.016;2024-01-11T05:43:51;22.70;23.20
65072;DHT22;51663;52.310;17.016;2024-01-11T05:46:53;22.60;23.10
65072;DHT22;51663;52.310;17.016;2024-01-11T05:49:56;22.80;23.20
65072;DHT22;51663;52.310;17.016;2024-01-11T05:52:59;22.70;23.20
65072;DHT22;51663;52.310;17.016;2024-01-11T05:56:06;22.70;23.20
65072;DHT22;51663;52.310;17.016;2024-01-11T05:59:09;22.60;23.30
65072;DHT22;51663;52.310;17.016;2024-01-11T06:02:12;22.90;23.40
65072;DHT22;51663;52.310;17.016;2024-01-11T06:05:16;22.70;23.40
65072;DHT22;51663;52.310;17.016;2024-01-11T06:08:18;22.80;23.40
65072;DHT22;51663;52.310;17.016;2024-01-11T06:11:20;22.90;23.40
65072;DHT22;51663;52.310;17.016;2024-01-11T06:14:24;23.20;23.30
65072;DHT22;51663;52.310;17.016;2024-01-11T06:17:28;23.00;23.30
65072;DHT22;51663;52.310;17.016;2024-01-11T06:20:30;23.00;23.40
65072;DHT22;51663;52.310;17.016;2024-01-11T06:23:34;23.10;23.30
65072;DHT22;51663;52.310;17.016;2024-01-11T06:26:37;23.20;23.20
65072;DHT22;51663;52.310;17.016;2024-01-11T06:29:39;23.30;23.00
65072;DHT22;51663;52.310;17.016;2024-01-11T06:32:42;23.30;23.10
65072;DHT22;51663;52.310;17.016;2024-01-11T06:35:45;23.20;23.20
65072;DHT22;51663;52.310;17.016;2024-01-11T06:38:48;23.20;23.20
65072;DHT22;51663;52.310;17.016;2024-01-11T06:41:50;23.30;23.20
65072;DHT22;51663;52.310;17.016;2024-01-11T06:44:52;23.10;23.20
65072;DHT22;51663;52.310;17.016;2024-01-11T06:47:55;23.30;23.40
65072;DHT22;51663;52.310;17.016;2024-01-11T06:50:58;23.20;23.30
65072;DHT22;51663;52.310;17.016;2024-01-11T06:54:03;23.30;23.30
65072;DHT22;51663;52.310;17.016;2024-01-11T06:57:05;23.40;23.20
65072;DHT22;51663;52.310;17.016;2024-01-11T07:00:08;23.10;23.40
65072;DHT22;51663;52.310;17.016;2024-01-11T07:03:11;23.20;23.40
65072;DHT22;51663;52.310;17.016;2024-01-11T07:06:13;23.40;23.30
65072;DHT22;51663;52.310;17.016;2024-01-11T07:09:16;23.30;23.20
65072;DHT22;51663;52.310;17.016;2024-01-11T07:12:19;23.30;23.30
65072;DHT22;51663;52.310;17.016;2024-01-11T07:15:21;23.40;23.30
65072;DHT22;51663;52.310;17.016;2024-01-11T07:18:25;23.50;23.10
65072;DHT22;51663;52.310;17.016;2024-01-11T07:21:27;23.40;23.10
65072;DHT22;51663;52.310;17.016;2024-01-11T07:24:33;23.30;23.20
65072;DHT22;51663;52.310;17.016;2024-01-11T07:27:40;23.40;23.30
65072;DHT22;51663;52.310;17.016;2024-01-11T07:30:43;23.50;23.20
65072;DHT22;51663;52.310;17.016;2024-01-11T07:33:46;23.50;23.30
65072;DHT22;51663;52.310;17.016;2024-01-11T07:36:48;23.60;23.30
65072;DHT22;51663;52.310;17.016;2024-01-11T07:39:50;23.40;23.20
65072;DHT22;51663;52.310;17.016;2024-01-11T07:42:53;23.30;23.40
65072;DHT22;51663;52.310;17.016;2024-01-11T07:45:55;23.20;23.50
65072;DHT22;51663;52.310;17.016;2024-01-11T07:48:59;23.40;23.40
65072;DHT22;51663;52.310;17.016;2024-01-11T07:52:02;23.30;24.00
65072;DHT22;51663;52.310;17.016;2024-01-11T07:55:04;23.30;23.60
65072;DHT22;51663;52.310;17.016;2024-01-11T07:58:10;23.40;23.60
65072;DHT22;51663;52.310;17.016;2024-01-11T08:01:15;23.40;23.70
65072;DHT22;51663;52.310;17.016;2024-01-11T08:04:18;23.50;23.50
65072;DHT22;51663;52.310;17.016;2024-01-11T08:07:20;23.40;23.70
65072;DHT22;51663;52.310;17.016;2024-01-11T08:10:24;23.60;23.70
65072;DHT22;51663;52.310;17.016;2024-01-11T08:13:27;23.40;23.60
65072;DHT22;51663;52.310;17.016;2024-01-11T08:16:29;23.30;23.80
65072;DHT22;51663;52.310;17.016;2024-01-11T08:19:32;23.50;23.70
65072;DHT22;51663;52.310;17.016;2024-01-11T08:22:35;23.50;23.70
65072;DHT22;51663;52.310;17.016;2024-01-11T08:25:39;23.70;23.60
65072;DHT22;51663;52.310;17.016;2024-01-11T08:28:42;23.80;23.70
65072;DHT22;51663;52.310;17.016;2024-01-11T08:31:47;23.80;23.70
65072;DHT22;51663;52.310;17.016;2024-01-11T08:34:50;23.90;23.60
65072;DHT22;51663;52.310;17.016;2024-01-11T08:37:52;24.10;23.60
65072;DHT22;51663;52.310;17.016;2024-01-11T08:40:55;23.80;23.70
65072;DHT22;51663;52.310;17.016;2024-01-11T08:43:58;23.80;23.80
65072;DHT22;51663;52.310;17.016;2024-01-11T08:47:01;23.80;23.80
65072;DHT22;51663;52.310;17.016;2024-01-11T08:50:06;23.90;23.80
65072;DHT22;51663;52.310;17.016;2024-01-11T08:53:10;24.20;23.80
65072;DHT22;51663;52.310;17.016;2024-01-11T08:56:13;24.20;23.90
65072;DHT22;51663;52.310;17.016;2024-01-11T08:59:16;24.20;23.90
65072;DHT22;51663;52.310;17.016;2024-01-11T09:02:18;24.30;23.90
65072;DHT22;51663;52.310;17.016;2024-01-11T09:05:28;24.20;23.90
65072;DHT22;51663;52.310;17.016;2024-01-11T09:08:30;24.30;24.00
65072;DHT22;51663;52.310;17.016;2024-01-11T09:11:33;24.30;23.90
65072;DHT22;51663;52.310;17.016;2024-01-11T09:14:35;24.40;23.90
65072;DHT22;51663;52.310;17.016;2024-01-11T09:17:38;24.20;24.00
65072;DHT22;51663;52.310;17.016;2024-01-11T09:20:41;24.30;24.20
65072;DHT22;51663;52.310;17.016;2024-01-11T09:23:45;24.40;24.10
65072;DHT22;51663;52.310;17.016;2024-01-11T09:26:48;24.20;24.30
65072;DHT22;51663;52.310;17.016;2024-01-11T09:29:52;24.10;24.30
65072;DHT22;51663;52.310;17.016;2024-01-11T09:32:58;24.30;24.40
65072;DHT22;51663;52.310;17.016;2024-01-11T09:36:00;24.10;24.30
65072;DHT22;51663;52.310;17.016;2024-01-11T09:39:02;24.30;24.50
65072;DHT22;51663;52.310;17.016;2024-01-11T09:42:08;24.30;24.70
65072;DHT22;51663;52.310;17.016;2024-01-11T09:45:16;24.40;24.70
65072;DHT22;51663;52.310;17.016;2024-01-11T09:48:19;24.60;24.60
65072;DHT22;51663;52.310;17.016;2024-01-11T09:51:22;24.60;24.60
65072;DHT22;51663;52.310;17.016;2024-01-11T09:54:26;24.80;24.70
65072;DHT22;51663;52.310;17.016;2024-01-11T09:57:31;24.70;24.50
65072;DHT22;51663;52.310;17.016;2024-01-11T10:00:35;24.60;24.70
65072;DHT22;51663;52.310;17.016;2024-01-11T10:03:42;24.80;24.70
65072;DHT22;51663;52.310;17.016;2024-01-11T10:06:45;24.80;24.60
65072;DHT22;51663;52.310;17.016;2024-01-11T10:09:48;25.00;24.70
65072;DHT22;51663;52.310;17.016;2024-01-11T10:12:51;24.90;24.80
65072;DHT22;51663;52.310;17.016;2024-01-11T10:16:04;24.90;25.20
65072;DHT22;51663;52.310;17.016;2024-01-11T10:19:07;24.90;24.80
65072;DHT22;51663;52.310;17.016;2024-01-11T10:22:11;24.90;24.80
65072;DHT22;51663;52.310;17.016;2024-01-11T10:25:19;25.10;24.80
65072;DHT22;51663;52.310;17.016;2024-01-11T10:28:21;25.00;24.80
65072;DHT22;51663;52.310;17.016;2024-01-11T10:31:24;24.90;24.90
65072;DHT22;51663;52.310;17.016;2024-01-11T10:34:30;24.70;25.10
65072;DHT22;51663;52.310;17.016;2024-01-11T10:37:33;24.90;25.10
65072;DHT22;51663;52.310;17.016;2024-01-11T10:40:35;24.80;25.10
65072;DHT22;51663;52.310;17.016;2024-01-11T10:43:38;24.70;25.30
65072;DHT22;51663;52.310;17.016;2024-01-11T10:46:41;24.70;25.30
65072;DHT22;51663;52.310;17.016;2024-01-11T10:49:47;24.90;25.10
65072;DHT22;51663;52.310;17.016;2024-01-11T10:56:19;25.00;25.10
65072;DHT22;51663;52.310;17.016;2024-01-11T10:59:22;25.00;25.10
65072;DHT22;51663;52.310;17.016;2024-01-11T11:02:29;24.80;25.30
65072;DHT22;51663;52.310;17.016;2024-01-11T11:05:32;25.10;25.10
65072;DHT22;51663;52.310;17.016;2024-01-11T11:08:37;25.20;25.10
65072;DHT22;51663;52.310;17.016;2024-01-11T11:11:40;25.20;25.20
65072;DHT22;51663;52.310;17.016;2024-01-11T11:14:44;25.00;25.30
65072;DHT22;51663;52.310;17.016;2024-01-11T11:17:50;25.10;25.20
65072;DHT22;51663;52.310;17.016;2024-01-11T11:20:53;25.20;25.30
65072;DHT22;51663;52.310;17.016;2024-01-11T11:23:56;25.00;25.40
65072;DHT22;51663;52.310;17.016;2024-01-11T11:26:59;25.30;25.30
65072;DHT22;51663;52.310;17.016;2024-01-11T11:30:03;25.50;25.10
65072;DHT22;51663;52.310;17.016;2024-01-11T11:33:20;25.50;25.00
65072;DHT22;51663;52.310;17.016;2024-01-11T11:36:28;25.60;25.00
65072;DHT22;51663;52.310;17.016;2024-01-11T11:39:32;25.60;25.10
65072;DHT22;51663;52.310;17.016;2024-01-11T11:42:37;25.60;25.10
65072;DHT22;51663;52.310;17.016;2024-01-11T11:45:40;25.60;25.10
65072;DHT22;51663;52.310;17.016;2024-01-11T11:51:49;25.60;25.20
65072;DHT22;51663;52.310;17.016;2024-01-11T11:54:52;25.50;25.20
65072;DHT22;51663;52.310;17.016;2024-01-11T11:57:55;25.60;25.10
65072;DHT22;51663;52.310;17.016;2024-01-11T12:00:59;25.70;25.10
65072;DHT22;51663;52.310;17.016;2024-01-11T12:04:02;25.80;25.00
65072;DHT22;51663;52.310;17.016;2024-01-11T12:07:04;25.90;25.00
65072;DHT22;51663;52.310;17.016;2024-01-11T12:10:07;25.80;25.10
65072;DHT22;51663;52.310;17.016;2024-01-11T12:13:09;25.50;25.30
65072;DHT22;51663;52.310;17.016;2024-01-11T12:16:12;25.40;25.30
65072;DHT22;51663;52.310;17.016;2024-01-11T12:19:17;25.60;25.30
65072;DHT22;51663;52.310;17.016;2024-01-11T12:22:19;25.60;25.30
65072;DHT22;51663;52.310;17.016;2024-01-11T12:25:21;25.60;25.40
65072;DHT22;51663;52.310;17.016;2024-01-11T12:28:24;25.50;25.30
65072;DHT22;51663;52.310;17.016;2024-01-11T12:31:27;25.50;25.50
65072;DHT22;51663;52.310;17.016;2024-01-11T12:34:30;25.40;25.40
65072;DHT22;51663;52.310;17.016;2024-01-11T12:37:32;25.40;25.60
65072;DHT22;51663;52.310;17.016;2024-01-11T12:40:36;25.50;25.50
65072;DHT22;51663;52.310;17.016;2024-01-11T12:43:42;25.70;25.50
65072;DHT22;51663;52.310;17.016;2024-01-11T12:46:45;25.80;25.30
65072;DHT22;51663;52.310;17.016;2024-01-11T12:49:49;25.70;25.40
65072;DHT22;51663;52.310;17.016;2024-01-11T12:53:13;25.70;25.40
65072;DHT22;51663;52.310;17.016;2024-01-11T12:56:21;25.80;25.40
65072;DHT22;51663;52.310;17.016;2024-01-11T12:59:26;25.80;25.40
65072;DHT22;51663;52.310;17.016;2024-01-11T13:02:28;25.70;25.50
65072;DHT22;51663;52.310;17.016;2024-01-11T13:05:36;25.90;25.40
65072;DHT22;51663;52.310;17.016;2024-01-11T13:08:39;25.90;25.30
65072;DHT22;51663;52.310;17.016;2024-01-11T13:11:43;25.40;25.70
65072;DHT22;51663;52.310;17.016;2024-01-11T13:14:46;25.20;26.30
65072;DHT22;51663;52.310;17.016;2024-01-11T13:17:49;25.50;26.10
65072;DHT22;51663;52.310;17.016;2024-01-11T13:20:52;25.10;26.40
65072;DHT22;51663;52.310;17.016;2024-01-11T13:23:54;24.90;26.80
65072;DHT22;51663;52.310;17.016;2024-01-11T13:26:57;25.10;26.50
65072;DHT22;51663;52.310;17.016;2024-01-11T13:30:00;25.10;26.60
65072;DHT22;51663;52.310;17.016;2024-01-11T13:33:03;25.00;26.70
65072;DHT22;51663;52.310;17.016;2024-01-11T13:36:06;24.80;26.90
65072;DHT22;51663;52.310;17.016;2024-01-11T13:39:11;24.70;27.00
65072;DHT22;51663;52.310;17.016;2024-01-11T13:42:14;24.60;27.30
65072;DHT22;51663;52.310;17.016;2024-01-11T13:45:16;24.70;27.20
65072;DHT22;51663;52.310;17.016;2024-01-11T13:48:19;24.80;27.20
65072;DHT22;51663;52.310;17.016;2024-01-11T13:51:21;25.00;27.00
65072;DHT22;51663;52.310;17.016;2024-01-11T13:54:24;24.70;27.10
65072;DHT22;51663;52.310;17.016;2024-01-11T13:57:26;25.10;26.90
65072;DHT22;51663;52.310;17.016;2024-01-11T14:00:29;25.20;26.90
65072;DHT22;51663;52.310;17.016;2024-01-11T14:03:31;25.10;26.70
65072;DHT22;51663;52.310;17.016;2024-01-11T14:06:34;25.30;27.00
65072;DHT22;51663;52.310;17.016;2024-01-11T14:09:39;25.20;26.80
65072;DHT22;51663;52.310;17.016;2024-01-11T14:12:42;25.10;26.70
65072;DHT22;51663;52.310;17.016;2024-01-11T14:15:46;25.30;26.80
65072;DHT22;51663;52.310;17.016;2024-01-11T14:18:53;25.50;26.80
65072;DHT22;51663;52.310;17.016;2024-01-11T14:21:55;25.10;26.80
65072;DHT22;51663;52.310;17.016;2024-01-11T14:24:59;25.40;26.90
65072;DHT22;51663;52.310;17.016;2024-01-11T14:28:01;25.30;26.70
65072;DHT22;51663;52.310;17.016;2024-01-11T14:31:04;25.60;26.80
65072;DHT22;51663;52.310;17.016;2024-01-11T14:34:07;25.60;26.70
65072;DHT22;51663;52.310;17.016;2024-01-11T14:37:12;25.70;26.60
65072;DHT22;51663;52.310;17.016;2024-01-11T14:40:15;25.70;26.60
65072;DHT22;51663;52.310;17.016;2024-01-11T14:43:18;25.60;26.60
65072;DHT22;51663;52.310;17.016;2024-01-11T14:46:20;25.40;26.80
65072;DHT22;51663;52.310;17.016;2024-01-11T14:49:23;24.80;27.30
65072;DHT22;51663;52.310;17.016;2024-01-11T14:52:28;25.10;27.40
65072;DHT22;51663;52.310;17.016;2024-01-11T14:55:30;25.20;27.20
65072;DHT22;51663;52.310;17.016;2024-01-11T14:58:32;25.40;27.00
65072;DHT22;51663;52.310;17.016;2024-01-11T15:01:35;25.20;27.10
65072;DHT22;51663;52.310;17.016;2024-01-11T15:04:39;25.50;27.00
65072;DHT22;51663;52.310;17.016;2024-01-11T15:07:42;25.50;27.00
65072;DHT22;51663;52.310;17.016;2024-01-11T15:10:48;25.30;27.00
65072;DHT22;51663;52.310;17.016;2024-01-11T15:13:51;25.10;27.30
65072;DHT22;51663;52.310;17.016;2024-01-11T15:16:53;24.80;27.70
65072;DHT22;51663;52.310;17.016;2024-01-11T15:19:56;24.20;28.50
65072;DHT22;51663;52.310;17.016;2024-01-11T15:23:00;24.80;28.00
65072;DHT22;51663;52.310;17.016;2024-01-11T15:26:02;24.60;28.10
65072;DHT22;51663;52.310;17.016;2024-01-11T15:29:05;24.90;28.00
65072;DHT22;51663;52.310;17.016;2024-01-11T15:32:08;25.20;27.70
65072;DHT22;51663;52.310;17.016;2024-01-11T15:35:12;25.30;27.40
65072;DHT22;51663;52.310;17.016;2024-01-11T15:38:15;25.10;27.60
65072;DHT22;51663;52.310;17.016;2024-01-11T15:41:18;25.50;27.30
65072;DHT22;51663;52.310;17.016;2024-01-11T15:44:20;25.40;27.10
65072;DHT22;51663;52.310;17.016;2024-01-11T15:47:24;25.60;27.20
65072;DHT22;51663;52.310;17.016;2024-01-11T15:50:27;25.60;27.20
65072;DHT22;51663;52.310;17.016;2024-01-11T15:53:29;25.70;27.20
65072;DHT22;51663;52.310;17.016;2024-01-11T15:56:32;25.80;27.10
65072;DHT22;51663;52.310;17.016;2024-01-11T15:59:34;25.80;27.10
65072;DHT22;51663;52.310;17.016;2024-01-11T16:02:37;25.90;27.00
65072;DHT22;51663;52.310;17.016;2024-01-11T16:05:42;25.90;27.10
65072;DHT22;51663;52.310;17.016;2024-01-11T16:08:47;25.70;27.10
65072;DHT22;51663;52.310;17.016;2024-01-11T16:11:50;25.90;27.00
65072;DHT22;51663;52.310;17.016;2024-01-11T16:14:52;26.10;27.00
65072;DHT22;51663;52.310;17.016;2024-01-11T16:17:59;26.10;26.80
65072;DHT22;51663;52.310;17.016;2024-01-11T16:21:02;26.10;26.80
65072;DHT22;51663;52.310;17.016;2024-01-11T16:24:05;26.00;27.00
65072;DHT22;51663;52.310;17.016;2024-01-11T16:27:08;25.80;27.00
65072;DHT22;51663;52.310;17.016;2024-01-11T16:30:13;25.90;27.10
65072;DHT22;51663;52.310;17.016;2024-01-11T16:33:16;26.00;26.90
65072;DHT22;51663;52.310;17.016;2024-01-11T16:36:19;26.10;26.90
65072;DHT22;51663;52.310;17.016;2024-01-11T16:39:22;26.00;27.00
65072;DHT22;51663;52.310;17.016;2024-01-11T16:42:26;25.80;27.00
65072;DHT22;51663;52.310;17.016;2024-01-11T16:45:29;25.70;27.20
65072;DHT22;51663;52.310;17.016;2024-01-11T16:48:33;25.90;27.10
65072;DHT22;51663;52.310;17.016;2024-01-11T16:51:43;26.00;27.10
65072;DHT22;51663;52.310;17.016;2024-01-11T16:54:52;25.80;27.10
65072;DHT22;51663;52.310;17.016;2024-01-11T16:57:55;25.90;27.00
65072;DHT22;51663;52.310;17.016;2024-01-11T17:01:00;26.00;27.00
65072;DHT22;51663;52.310;17.016;2024-01-11T17:04:02;25.80;27.10
65072;DHT22;51663;52.310;17.016;2024-01-11T17:07:06;25.70;27.40
65072;DHT22;51663;52.310;17.016;2024-01-11T17:10:11;25.90;27.20
65072;DHT22;51663;52.310;17.016;2024-01-11T17:13:13;25.50;27.40
65072;DHT22;51663;52.310;17.016;2024-01-11T17:16:19;25.40;27.60
65072;DHT22;51663;52.310;17.016;2024-01-11T17:19:22;25.70;27.50
65072;DHT22;51663;52.310;17.016;2024-01-11T17:22:25;25.90;27.20
65072;DHT22;51663;52.310;17.016;2024-01-11T17:25:28;26.00;27.10
65072;DHT22;51663;52.310;17.016;2024-01-11T17:28:30;26.00;26.90
65072;DHT22;51663;52.310;17.016;2024-01-11T17:31:32;26.10;27.00
65072;DHT22;51663;52.310;17.016;2024-01-11T17:34:34;26.20;26.90
65072;DHT22;51663;52.310;17.016;2024-01-11T17:37:37;26.10;27.00
65072;DHT22;51663;52.310;17.016;2024-01-11T17:40:39;26.10;27.00
65072;DHT22;51663;52.310;17.016;2024-01-11T17:43:42;25.90;27.00
65072;DHT22;51663;52.310;17.016;2024-01-11T17:46:45;25.70;27.20
65072;DHT22;51663;52.310;17.016;2024-01-11T17:49:47;25.70;27.20
65072;DHT22;51663;52.310;17.016;2024-01-11T17:52:50;25.80;27.20
65072;DHT22;51663;52.310;17.016;2024-01-11T17:55:53;25.60;27.60
65072;DHT22;51663;52.310;17.016;2024-01-11T17:58:55;25.70;27.40
65072;DHT22;51663;52.310;17.016;2024-01-11T18:01:58;25.90;27.20
65072;DHT22;51663;52.310;17.016;2024-01-11T18:05:00;26.00;27.40
65072;DHT22;51663;52.310;17.016;2024-01-11T18:08:03;25.90;27.30
65072;DHT22;51663;52.310;17.016;2024-01-11T18:11:06;26.00;27.30
65072;DHT22;51663;52.310;17.016;2024-01-11T18:14:14;26.10;27.20
65072;DHT22;51663;52.310;17.016;2024-01-11T18:17:16;26.10;27.20
65072;DHT22;51663;52.310;17.016;2024-01-11T18:20:18;25.80;27.50
65072;DHT22;51663;52.310;17.016;2024-01-11T18:23:21;25.80;27.60
65072;DHT22;51663;52.310;17.016;2024-01-11T18:26:23;25.70;27.70
65072;DHT22;51663;52.310;17.016;2024-01-11T18:29:28;25.80;27.70
65072;DHT22;51663;52.310;17.016;2024-01-11T18:32:31;26.00;27.40
65072;DHT22;51663;52.310;17.016;2024-01-11T18:35:33;25.60;27.70
65072;DHT22;51663;52.310;17.016;2024-01-11T18:38:35;25.70;27.60
65072;DHT22;51663;52.310;17.016;2024-01-11T18:41:39;25.50;27.90
65072;DHT22;51663;52.310;17.016;2024-01-11T18:44:41;25.60;27.90
65072;DHT22;51663;52.310;17.016;2024-01-11T18:47:43;25.60;27.70
65072;DHT22;51663;52.310;17.016;2024-01-11T18:50:46;25.80;27.70
65072;DHT22;51663;52.310;17.016;2024-01-11T18:53:48;25.70;27.50
65072;DHT22;51663;52.310;17.016;2024-01-11T18:56:50;25.80;27.80
65072;DHT22;51663;52.310;17.016;2024-01-11T18:59:54;25.30;28.00
65072;DHT22;51663;52.310;17.016;2024-01-11T19:02:58;24.80;28.70
65072;DHT22;51663;52.310;17.016;2024-01-11T19:06:01;24.40;28.90
65072;DHT22;51663;52.310;17.016;2024-01-11T19:09:03;24.50;29.40